Terminal Aerodrome Forecast
Issued by NWS Binghamton, NY

Home | Current Version | Previous Version | Text Only | Print | Product List | Glossary On
Versions: 1 2 3 4 5 6 7 8 9 10 11 12 13 14 15 16 17 18
000
FTUS41 KBGM 281700
TAFSYR
TAF
KSYR 281736Z 2818/2918 28008KT P6SM SKC
     FM290000 VRB03KT P6SM SKC
     FM290700 11005KT P6SM OVC200
     FM291500 15012KT P6SM OVC100=

USA.gov is the U.S. government's official web portal to all federal, state and local government web resources and services.